Observations for ISLAY PORT ELLEN, United Kingdom (EGPI)

EGPI 130850Z 13029G42KT 110V170 9999 -RA BKN027 06/02 Q1011 
EGPI 130820Z 13029KT 100V160 9999 SCT025 BKN035 06/02 Q1011 
EGPI 130750Z AUTO 13027G40KT 100V160 9999 OVC024/// 06/02 Q1010 
EGPI 130720Z AUTO 13030G42KT 100V160 9999 BKN024/// 06/02 Q1010 
EGPI 130650Z AUTO 12027G38KT 090V150 9999 BKN025/// 06/02 Q1010 
EGPI 130620Z AUTO 13030G42KT 110V170 9999 BKN027/// BKN033/// 06/01 Q1010   
EGPI 130550Z AUTO 13028G38KT 100V170 9999 BKN024/// BKN032/// 06/02 Q1010   
EGPI 130520Z AUTO 13028KT 100V160 9999 BKN024/// 06/02 Q1010
EGPI 130450Z AUTO 13028KT 090V150 9999 OVC023/// 06/02 Q1010
EGPI 130420Z AUTO 13028G38KT 090V160 9999 OVC023/// 06/02 Q1009 
EGPI 130350Z AUTO 13026KT 100V160 9999 OVC023/// 06/02 Q1010
EGPI 130320Z AUTO 13027G37KT 100V160 9999 BKN023/// 06/02 Q1010 
EGPI 130250Z AUTO 13027G39KT 100V160 9999 OVC020/// 06/02 Q1010 
EGPI 130220Z AUTO 13026G40KT 090V160 9999 OVC019/// 06/03 Q1010 
EGPI 130150Z AUTO 13028G39KT 100V160 9999 OVC018/// 06/03 Q1009 
EGPI 130120Z AUTO 12031G41KT 090V150 9999 OVC018/// 06/03 Q1009 
EGPI 130050Z AUTO 12031G43KT 080V150 9999 OVC018/// 07/03 Q1009 
EGPI 130020Z AUTO 13029G40KT 090V160 9999 OVC017/// 07/03 Q1010 
EGPI 122350Z AUTO 13028G38KT 100V160 9999 OVC017/// 07/04 Q1010 
EGPI 122320Z AUTO 13028G38KT 9999 BKN016/// SCT024/// BKN031/// 07/05 Q1010 
EGPI 122250Z AUTO 13028G38KT 100V160 9999 BKN016/// SCT024/// 08/05 Q1010   
EGPI 122220Z AUTO 13030G41KT 100V180 9999 BKN017/// BKN021/// 08/05 Q1010   
EGPI 122150Z AUTO 14030G40KT 110V170 9000 BKN016/// BKN024/// 08/05 Q1010   
EGPI 122120Z AUTO 14030G41KT 110V170 9000 SCT015/// BKN024/// 08/06 Q1010   
EGPI 122050Z AUTO 14027G37KT 110V170 9999 BKN015/// BKN023/// 08/06 Q1010   
EGPI 122020Z AUTO 14028G40KT 110V170 9999 BKN014/// 08/06 Q1010 
EGPI 121950Z AUTO 13026G36KT 100V170 9999 BKN014/// BKN020/// 08/06 Q1010   
EGPI 121920Z 13024KT 100V160 9999 FEW009 BKN017 BKN024 09/07 Q1010  
EGPI 121850Z 13028KT 9999 FEW005 BKN011 BKN020 09/07 Q1010  
EGPI 121820Z 13023KT 9999 FEW005 BKN010 09/07 Q1010 
EGPI 121750Z 13023KT 100V160 9999 FEW004 BKN010 09/07 Q1011 
EGPI 121720Z AUTO 13023KT 100V160 7000 BKN009/// BKN016/// 08/07 Q1011  
EGPI 121650Z 13023G33KT 100V160 6000 FEW004 BKN009 08/07 Q1011  
EGPI 121620Z AUTO 12025KT 090V150 7000 BKN009/// BKN016/// 08/08 Q1011  
EGPI 121550Z 13023KT 100V160 8000 FEW004 OVC009 08/07 Q1011 
EGPI 121520Z AUTO 13024KT 100V160 9000 OVC009/// 08/08 Q1011
EGPI 121450Z 13022G32KT 100V160 9000 -DZ FEW005 BKN009 09/08 Q1012  
EGPI 121420Z 13021KT 090V150 9000 -DZ FEW004 OVC008 09/08 Q1012 
EGPI 121350Z AUTO 13021G31KT 090V170 8000 OVC009/// 09/08 Q1012 RERA
EGPI 121320Z 13021KT 8000 OVC006 09/08 Q1012
EGPI 121250Z 14023KT 100V170 5000 -RADZ OVC005 09/09 Q1013  
EGPI 121220Z 14023KT 110V170 4000 -RADZ BKN004 09/09 Q1013  
EGPI 121150Z 14021KT 100V170 4000 -RADZ BKN004 BKN013 09/09 Q1013   
EGPI 121120Z 13020KT 110V170 6000 -RA BKN004 BKN011 09/09 Q1013 
EGPI 121050Z 13020KT 100V160 2000 RADZ BR BKN004 SCT011 09/09 Q1014 
EGPI 121020Z 13020KT 100V160 2500 RADZ BKN006 BKN011 09/09 Q1014
EGPI 120950Z 13021KT 100V160 6000 -RA SCT006 BKN010 09/09 Q1014 
EGPI 120920Z 13020KT 3000 -RA BR BKN004 SCT010 BKN015 09/08 Q1014   
EGPI 120850Z 13015KT 100V170 4000 -RA BR BKN003 BKN015 09/09 Q1014  
EGPI 120820Z 14019KT 7000 -RA SCT006 BKN015 09/09 Q1014